Los Angeles, California
Traffic Map
Current Weather Conditions
Los Angeles, California
Clear
Clear
67°
Feels Like: 67°
Wind Chill: 67° Ceiling: Unl
Heat Index: 67° Visibility: 10mi
Dew Point: 60° Wind: 0mph
Humidity: 79% Direction: ° ()
Pressure: 29.99in Gusts: 0mph
Raw Report DataKCQT 250547Z AUTO 00000KT 10SM CLR 19/16 A2999 RMK AO2 SLP153 T01940156 10283 20194 52015
Traffic Incident Summary
Active as of:
Severity:
Category:
InformationThere was an issue retrieving the traffic information for this location. Please try a different location or try again shortly.
Advertisements
Track Severe Weather on mobile